createdAt,value
2023-03-24T00:01:10.301Z,99462.00
2023-03-24T00:03:38.262Z,99455.00
2023-03-24T00:06:09.275Z,99453.00
2023-03-24T00:08:38.441Z,99455.00
2023-03-24T00:11:09.021Z,99459.00
2023-03-24T00:13:38.237Z,99458.00
2023-03-24T00:16:11.949Z,99453.00
2023-03-24T00:18:40.563Z,99457.00
2023-03-24T00:21:11.575Z,99444.00
2023-03-24T00:23:42.595Z,99437.00
2023-03-24T00:26:15.536Z,99437.00
2023-03-24T00:28:45.480Z,99439.00
2023-03-24T00:31:15.975Z,99441.00
2023-03-24T00:33:48.112Z,99429.00
2023-03-24T00:36:16.916Z,99432.00
2023-03-24T00:38:45.266Z,99430.00
2023-03-24T00:41:13.133Z,99427.00
2023-03-24T00:43:40.981Z,99415.00
2023-03-24T00:46:14.117Z,99415.00
2023-03-24T00:48:44.578Z,99401.00
2023-03-24T00:51:12.421Z,99406.00
2023-03-24T00:53:43.907Z,99394.00
2023-03-24T00:56:15.678Z,99395.00
2023-03-24T00:58:43.510Z,99394.00
2023-03-24T01:01:11.517Z,99382.00
2023-03-24T01:03:48.294Z,99382.00
2023-03-24T01:06:18.042Z,99379.00
2023-03-24T01:08:46.518Z,99376.00
2023-03-24T01:11:14.300Z,99384.00
2023-03-24T01:13:42.182Z,99377.00
2023-03-24T01:16:10.756Z,99359.00
2023-03-24T01:18:40.621Z,99363.00
2023-03-24T01:21:09.661Z,99353.00
2023-03-24T01:23:39.873Z,99354.00
2023-03-24T01:26:09.709Z,99347.00
2023-03-24T01:28:40.906Z,99334.00
2023-03-24T01:31:10.277Z,99328.00
2023-03-24T01:33:38.781Z,99331.00
2023-03-24T01:36:08.187Z,99319.00
2023-03-24T01:38:36.427Z,99330.00
2023-03-24T01:41:06.704Z,99300.00
2023-03-24T01:43:35.870Z,99312.00
2023-03-24T01:46:16.167Z,99305.00
2023-03-24T01:48:48.018Z,99300.00
2023-03-24T01:51:19.229Z,99304.00
2023-03-24T01:53:51.019Z,99281.00
2023-03-24T01:56:20.806Z,99288.00
2023-03-24T01:58:52.816Z,99283.00
2023-03-24T02:01:21.922Z,99262.00
2023-03-24T02:03:50.318Z,99277.00
2023-03-24T02:06:20.117Z,99276.00
2023-03-24T02:08:52.503Z,99266.00
2023-03-24T02:11:23.424Z,99263.00
2023-03-24T02:13:51.329Z,99264.00
2023-03-24T02:16:43.833Z,99254.00
2023-03-24T02:19:39.037Z,99244.00
2023-03-24T02:22:37.948Z,99248.00
2023-03-24T02:25:41.606Z,99233.00
2023-03-24T02:28:27.970Z,99225.00
2023-03-24T02:31:24.264Z,99217.00
2023-03-24T02:34:33.277Z,99224.00
2023-03-24T02:37:27.521Z,99217.00
2023-03-24T02:40:13.988Z,99223.00
2023-03-24T02:42:51.591Z,99198.00
2023-03-24T02:45:28.568Z,99207.00
2023-03-24T02:48:09.292Z,99205.00
2023-03-24T02:50:42.415Z,99203.00
2023-03-24T02:53:17.300Z,99182.00
2023-03-24T02:55:54.666Z,99200.00
2023-03-24T02:58:29.048Z,99208.00
2023-03-24T03:01:03.433Z,99198.00
2023-03-24T03:03:35.395Z,99191.00
2023-03-24T03:06:06.988Z,99174.00
2023-03-24T03:08:37.051Z,99188.00
2023-03-24T03:11:10.803Z,99186.00
2023-03-24T03:13:41.674Z,99170.00
2023-03-24T03:16:15.565Z,99167.00
2023-03-24T03:18:50.010Z,99150.00
2023-03-24T03:21:22.147Z,99162.00
2023-03-24T03:23:55.485Z,99163.00
2023-03-24T03:26:28.550Z,99160.00
2023-03-24T03:29:00.190Z,99159.00
2023-03-24T03:31:32.315Z,99134.00
2023-03-24T03:34:08.225Z,99154.00
2023-03-24T03:36:42.948Z,99152.00
2023-03-24T03:39:16.034Z,99150.00
2023-03-24T03:41:45.522Z,99146.00
2023-03-24T03:44:13.433Z,99141.00
2023-03-24T03:46:41.363Z,99120.00
2023-03-24T03:49:09.880Z,99125.00
2023-03-24T03:51:37.817Z,99122.00
2023-03-24T03:54:09.524Z,99112.00
2023-03-24T03:56:38.567Z,99127.00
2023-03-24T03:59:08.663Z,99121.00
2023-03-24T04:01:41.909Z,99118.00
2023-03-24T04:04:41.680Z,99103.00
2023-03-24T04:07:16.111Z,99108.00
2023-03-24T04:09:53.246Z,99098.00
2023-03-24T04:12:43.235Z,99092.00
2023-03-24T04:15:30.319Z,99091.00
2023-03-24T04:18:12.558Z,99085.00
2023-03-24T04:20:47.410Z,99075.00
2023-03-24T04:23:27.452Z,99077.00
2023-03-24T04:26:06.221Z,99085.00
2023-03-24T04:28:39.479Z,99079.00
2023-03-24T04:31:16.218Z,99063.00
2023-03-24T04:33:50.290Z,99060.00
2023-03-24T04:36:27.399Z,99051.00
2023-03-24T04:38:57.936Z,99067.00
2023-03-24T04:41:27.927Z,99060.00
2023-03-24T04:43:58.190Z,99055.00
2023-03-24T04:46:28.440Z,99062.00
2023-03-24T04:48:56.244Z,99049.00
2023-03-24T04:51:24.391Z,99049.00
2023-03-24T04:53:52.095Z,99043.00
2023-03-24T04:56:33.579Z,99036.00
2023-03-24T04:59:03.000Z,99041.00
2023-03-24T05:01:32.097Z,99025.00
2023-03-24T05:04:00.047Z,99033.00
2023-03-24T05:06:28.078Z,99039.00
2023-03-24T05:08:57.665Z,99026.00
2023-03-24T05:11:25.903Z,99027.00
2023-03-24T05:13:53.824Z,99033.00
2023-03-24T05:16:22.101Z,99001.00
2023-03-24T05:18:51.348Z,99015.00
2023-03-24T05:21:20.540Z,99016.00
2023-03-24T05:23:48.232Z,99010.00
2023-03-24T05:26:16.321Z,99009.00
2023-03-24T05:28:44.058Z,99001.00
2023-03-24T05:31:11.853Z,98986.00
2023-03-24T05:33:39.665Z,99004.00
2023-03-24T05:36:09.835Z,98998.00
2023-03-24T05:38:37.608Z,98990.00
2023-03-24T05:41:05.880Z,99005.00
2023-03-24T05:43:33.827Z,98994.00
2023-03-24T05:46:01.603Z,98980.00
2023-03-24T05:48:29.514Z,99002.00
2023-03-24T05:50:57.323Z,99015.00
2023-03-24T05:53:26.600Z,98990.00
2023-03-24T05:55:54.838Z,99000.00
2023-03-24T05:58:22.522Z,98992.00
2023-03-24T06:00:50.259Z,98975.00
2023-03-24T06:03:20.013Z,98995.00
2023-03-24T06:05:50.614Z,99004.00
2023-03-24T06:08:27.212Z,99011.00
2023-03-24T06:11:00.616Z,99025.00
2023-03-24T06:13:28.374Z,99010.00
2023-03-24T06:15:59.407Z,99013.00
2023-03-24T06:18:40.520Z,99016.00
2023-03-24T06:21:08.539Z,99037.00
2023-03-24T06:23:36.314Z,99025.00
2023-03-24T06:26:10.247Z,99024.00
2023-03-24T06:28:39.677Z,99033.00
2023-03-24T06:31:14.614Z,99029.00
2023-03-24T06:33:44.542Z,99039.00
2023-03-24T06:36:15.747Z,99026.00
2023-03-24T06:38:43.982Z,99038.00
2023-03-24T06:41:13.360Z,99048.00
2023-03-24T06:43:41.586Z,99025.00
2023-03-24T06:46:10.089Z,99052.00
2023-03-24T06:48:38.467Z,99072.00
2023-03-24T06:51:06.784Z,99079.00
2023-03-24T06:53:34.816Z,99102.00
2023-03-24T06:56:02.745Z,99102.00
2023-03-24T06:58:33.869Z,99111.00
2023-03-24T07:01:02.022Z,99083.00
2023-03-24T07:03:30.708Z,99111.00
2023-03-24T07:06:00.557Z,99092.00
2023-03-24T07:08:37.405Z,99128.00
2023-03-24T07:11:08.996Z,99121.00
2023-03-24T07:13:40.657Z,99131.00
2023-03-24T07:16:09.765Z,99135.00
2023-03-24T07:18:37.520Z,99133.00
2023-03-24T07:21:06.080Z,99147.00
2023-03-24T07:23:34.139Z,99133.00
2023-03-24T07:26:02.261Z,99154.00
2023-03-24T07:28:30.064Z,99148.00
2023-03-24T07:31:02.931Z,99156.00
2023-03-24T07:33:46.216Z,99122.00
2023-03-24T07:36:14.054Z,99158.00
2023-03-24T07:38:42.751Z,99142.00
2023-03-24T07:41:10.628Z,99171.00
2023-03-24T07:43:38.649Z,99168.00
2023-03-24T07:46:09.269Z,99159.00
2023-03-24T07:48:38.562Z,99160.00
2023-03-24T07:51:06.993Z,99180.00
2023-03-24T07:53:34.932Z,99173.00
2023-03-24T07:56:02.682Z,99193.00
2023-03-24T07:58:30.574Z,99193.00
2023-03-24T08:00:58.745Z,99216.00
2023-03-24T08:03:29.248Z,99215.00
2023-03-24T08:05:57.313Z,99217.00
2023-03-24T08:08:25.314Z,99210.00
2023-03-24T08:10:53.161Z,99228.00
2023-03-24T08:13:21.025Z,99239.00
2023-03-24T08:15:49.009Z,99228.00
2023-03-24T08:18:17.186Z,99217.00
2023-03-24T08:20:46.326Z,99205.00
2023-03-24T08:23:14.180Z,99224.00
2023-03-24T08:25:42.186Z,99228.00
2023-03-24T08:28:10.242Z,99245.00
2023-03-24T08:30:38.260Z,99204.00
2023-03-24T08:33:06.501Z,99229.00
2023-03-24T08:35:38.820Z,99221.00
2023-03-24T08:38:18.261Z,99231.00
2023-03-24T08:40:49.047Z,99243.00
2023-03-24T08:43:20.010Z,99216.00
2023-03-24T08:45:48.355Z,99250.00
2023-03-24T08:48:16.487Z,99241.00
2023-03-24T08:50:44.367Z,99256.00
2023-03-24T08:53:13.730Z,99258.00
2023-03-24T08:55:43.799Z,99260.00
2023-03-24T08:58:24.818Z,99243.00
2023-03-24T09:00:54.747Z,99290.00
2023-03-24T09:03:24.560Z,99295.00
2023-03-24T09:05:58.616Z,99287.00
2023-03-24T09:08:58.106Z,99282.00
2023-03-24T09:11:59.053Z,99313.00
2023-03-24T09:14:35.005Z,99309.00
2023-03-24T09:17:13.986Z,99293.00
2023-03-24T09:19:49.641Z,99276.00
2023-03-24T09:26:49.951Z,99296.00
2023-03-24T09:29:24.383Z,99337.00
2023-03-24T09:32:05.819Z,99286.00
2023-03-24T09:35:17.314Z,99347.00
2023-03-24T09:37:45.269Z,99336.00
2023-03-24T09:48:36.290Z,99339.00
2023-03-24T10:02:24.170Z,99342.00
2023-03-24T10:04:53.557Z,99350.00
2023-03-24T10:11:08.278Z,99336.00
2023-03-24T10:13:53.984Z,99324.00
2023-03-24T10:16:38.736Z,99332.00
2023-03-24T10:19:24.651Z,99335.00
2023-03-24T10:22:09.847Z,99339.00
2023-03-24T10:24:44.675Z,99335.00
2023-03-24T10:33:20.172Z,99335.00
2023-03-24T10:36:05.323Z,99322.00
2023-03-24T10:38:36.818Z,99327.00
2023-03-24T10:41:06.161Z,99358.00
2023-03-24T10:43:34.546Z,99341.00
2023-03-24T10:46:14.543Z,99369.00
2023-03-24T10:48:47.290Z,99352.00
2023-03-24T10:51:19.831Z,99363.00
2023-03-24T10:54:02.317Z,99343.00
2023-03-24T10:56:46.164Z,99358.00
2023-03-24T10:59:32.816Z,99362.00
2023-03-24T11:02:04.284Z,99378.00
2023-03-24T11:04:33.754Z,99391.00
2023-03-24T11:07:10.108Z,99400.00
2023-03-24T11:09:44.793Z,99382.00
2023-03-24T11:12:30.485Z,99390.00
2023-03-24T11:15:22.314Z,99391.00
2023-03-24T11:18:03.242Z,99393.00
2023-03-24T11:20:35.468Z,99382.00
2023-03-24T11:23:07.313Z,99390.00
2023-03-24T11:25:46.013Z,99379.00
2023-03-24T11:28:17.818Z,99390.00
2023-03-24T11:30:48.060Z,99386.00
2023-03-24T11:33:35.204Z,99368.00
2023-03-24T11:36:18.593Z,99381.00
2023-03-24T11:39:05.366Z,99400.00
2023-03-24T11:41:39.095Z,99406.00
2023-03-24T11:44:23.111Z,99377.00
2023-03-24T11:46:55.065Z,99390.00
2023-03-24T11:49:37.195Z,99398.00
2023-03-24T11:52:08.812Z,99384.00
2023-03-24T11:54:37.776Z,99382.00
2023-03-24T11:57:20.844Z,99397.00
2023-03-24T12:00:03.806Z,99387.00
2023-03-24T12:02:52.620Z,99386.00
2023-03-24T12:05:35.857Z,99383.00
2023-03-24T12:08:31.985Z,99390.00
2023-03-24T12:11:27.491Z,99394.00
2023-03-24T12:14:05.277Z,99389.00
2023-03-24T12:17:03.808Z,99366.00
2023-03-24T12:19:58.273Z,99399.00
2023-03-24T12:22:40.768Z,99384.00
2023-03-24T12:25:50.623Z,99393.00
2023-03-24T12:28:34.998Z,99362.00
2023-03-24T12:31:25.834Z,99391.00
2023-03-24T12:34:04.032Z,99396.00
2023-03-24T12:36:44.277Z,99403.00
2023-03-24T12:39:13.788Z,99403.00
2023-03-24T12:41:53.083Z,99415.00
2023-03-24T12:45:02.677Z,99412.00
2023-03-24T12:47:59.325Z,99419.00
2023-03-24T12:50:43.295Z,99396.00
2023-03-24T12:53:23.419Z,99421.00
2023-03-24T12:55:55.633Z,99436.00
2023-03-24T12:58:28.788Z,99422.00
2023-03-24T13:01:02.944Z,99396.00
2023-03-24T13:03:39.373Z,99401.00
2023-03-24T13:06:17.953Z,99407.00
2023-03-24T13:09:18.872Z,99399.00
2023-03-24T13:15:40.012Z,99382.00
2023-03-24T13:18:28.689Z,99390.00
2023-03-24T13:21:15.402Z,99385.00
2023-03-24T13:23:48.059Z,99355.00
2023-03-24T13:26:27.826Z,99372.00
2023-03-24T13:29:05.842Z,99377.00
2023-03-24T13:31:39.325Z,99372.00
2023-03-24T13:34:24.194Z,99359.00
2023-03-24T13:37:05.770Z,99348.00
2023-03-24T13:39:36.430Z,99370.00
2023-03-24T13:42:05.238Z,99382.00
2023-03-24T13:44:39.809Z,99356.00
2023-03-24T13:47:12.767Z,99374.00
2023-03-24T13:49:42.109Z,99385.00
2023-03-24T13:52:28.884Z,99387.00
2023-03-24T13:55:02.016Z,99398.00
2023-03-24T13:57:33.029Z,99369.00
2023-03-24T14:00:18.563Z,99405.00
2023-03-24T14:02:51.219Z,99414.00
2023-03-24T14:06:02.282Z,99404.00
2023-03-24T14:08:55.112Z,99404.00
2023-03-24T14:11:45.527Z,99393.00
2023-03-24T14:14:22.363Z,99394.00
2023-03-24T14:17:13.627Z,99381.00
2023-03-24T14:20:19.368Z,99384.00
2023-03-24T14:22:48.774Z,99412.00
2023-03-24T14:25:33.643Z,99421.00
2023-03-24T14:28:29.856Z,99408.00
2023-03-24T14:31:03.496Z,99391.00
2023-03-24T14:33:34.529Z,99417.00
2023-03-24T14:36:12.173Z,99401.00
2023-03-24T14:38:43.240Z,99410.00
2023-03-24T14:41:16.160Z,99409.00
2023-03-24T14:44:01.909Z,99422.00
2023-03-24T14:46:52.061Z,99411.00
2023-03-24T14:49:53.029Z,99426.00
2023-03-24T14:52:25.963Z,99398.00
2023-03-24T14:55:19.695Z,99419.00
2023-03-24T14:57:50.270Z,99382.00
2023-03-24T15:00:51.738Z,99410.00
2023-03-24T15:03:38.057Z,99400.00
2023-03-24T15:06:14.685Z,99410.00
2023-03-24T15:08:51.926Z,99409.00
2023-03-24T15:11:24.355Z,99392.00
2023-03-24T15:13:56.677Z,99438.00
2023-03-24T15:16:29.977Z,99473.00
2023-03-24T15:19:01.871Z,99465.00
2023-03-24T15:21:33.937Z,99471.00
2023-03-24T15:24:08.905Z,99475.00
2023-03-24T15:26:36.855Z,99424.00
2023-03-24T15:29:07.936Z,99446.00
2023-03-24T15:31:39.382Z,99410.00
2023-03-24T15:34:25.261Z,99429.00
2023-03-24T15:36:56.814Z,99415.00
2023-03-24T15:39:34.072Z,99389.00
2023-03-24T15:42:01.966Z,99388.00
2023-03-24T15:44:31.100Z,99406.00
2023-03-24T15:47:00.496Z,99407.00
2023-03-24T15:49:32.616Z,99401.00
2023-03-24T15:52:03.629Z,99382.00
2023-03-24T15:54:43.000Z,99387.00
2023-03-24T15:57:16.151Z,99386.00
2023-03-24T15:59:49.732Z,99397.00
2023-03-24T16:02:26.838Z,99426.00
2023-03-24T16:05:09.869Z,99418.00
2023-03-24T16:07:44.263Z,99405.00
2023-03-24T16:10:32.402Z,99392.00
2023-03-24T16:13:24.249Z,99380.00
2023-03-24T16:16:11.971Z,99424.00
2023-03-24T16:18:42.360Z,99400.00
2023-03-24T16:21:25.894Z,99421.00
2023-03-24T16:23:55.517Z,99416.00
2023-03-24T16:26:26.370Z,99435.00
2023-03-24T16:28:59.601Z,99442.00
2023-03-24T16:31:30.654Z,99426.00
2023-03-24T16:34:01.556Z,99452.00
2023-03-24T16:36:29.572Z,99448.00
2023-03-24T16:39:00.574Z,99490.00
2023-03-24T16:41:32.964Z,99512.00
2023-03-24T16:44:00.798Z,99529.00
2023-03-24T16:46:32.438Z,99547.00
2023-03-24T16:49:01.465Z,99536.00
2023-03-24T16:51:37.879Z,99554.00
2023-03-24T16:54:06.188Z,99528.00
2023-03-24T16:56:35.875Z,99536.00
2023-03-24T16:59:08.007Z,99514.00
2023-03-24T17:01:38.170Z,99530.00
2023-03-24T17:04:09.647Z,99533.00
2023-03-24T17:09:47.676Z,99525.00
2023-03-24T17:12:17.879Z,99528.00
2023-03-24T17:14:55.017Z,99514.00
2023-03-24T17:20:48.355Z,99512.00
2023-03-24T17:23:18.931Z,99506.00
2023-03-24T17:25:47.101Z,99513.00
2023-03-24T17:28:17.391Z,99508.00
2023-03-24T17:30:47.253Z,99518.00
2023-03-24T17:33:24.494Z,99507.00
2023-03-24T17:39:10.470Z,99528.00
2023-03-24T17:41:39.452Z,99510.00
2023-03-24T17:44:12.661Z,99524.00
2023-03-24T17:46:47.737Z,99502.00
2023-03-24T17:49:19.153Z,99523.00
2023-03-24T17:51:47.031Z,99533.00
2023-03-24T17:58:30.442Z,99530.00
2023-03-24T18:01:08.749Z,99514.00
2023-03-24T18:03:39.214Z,99509.00
2023-03-24T18:06:09.058Z,99502.00
2023-03-24T18:08:37.949Z,99503.00
2023-03-24T18:11:07.595Z,99496.00
2023-03-24T18:13:35.788Z,99519.00
2023-03-24T18:16:19.850Z,99511.00
2023-03-24T18:18:49.118Z,99481.00
2023-03-24T18:21:20.025Z,99514.00
2023-03-24T18:23:48.658Z,99517.00
2023-03-24T18:26:18.036Z,99513.00
2023-03-24T18:28:50.280Z,99510.00
2023-03-24T18:31:30.413Z,99519.00
2023-03-24T18:34:07.089Z,99518.00
2023-03-24T18:44:31.315Z,99521.00
2023-03-24T18:47:19.284Z,99528.00
2023-03-24T18:49:50.063Z,99529.00
2023-03-24T18:52:27.320Z,99526.00
2023-03-24T18:59:01.379Z,99524.00
2023-03-24T19:01:43.342Z,99517.00
2023-03-24T19:04:19.304Z,99548.00
2023-03-24T19:06:57.268Z,99507.00
2023-03-24T19:09:29.797Z,99527.00
2023-03-24T19:11:57.815Z,99531.00
2023-03-24T19:14:28.970Z,99537.00
2023-03-24T19:17:01.999Z,99525.00
2023-03-24T19:19:34.341Z,99509.00
2023-03-24T19:22:02.809Z,99525.00
2023-03-24T19:24:36.273Z,99507.00
2023-03-24T19:27:16.136Z,99468.00
2023-03-24T19:29:47.108Z,99509.00
2023-03-24T19:32:15.081Z,99490.00
2023-03-24T19:34:44.871Z,99510.00
2023-03-24T19:37:14.111Z,99503.00
2023-03-24T19:39:46.255Z,99494.00
2023-03-24T19:42:16.745Z,99496.00
2023-03-24T19:44:47.943Z,99523.00
2023-03-24T19:47:21.260Z,99518.00
2023-03-24T19:50:13.972Z,99493.00
2023-03-24T19:52:50.642Z,99459.00
2023-03-24T19:55:36.217Z,99502.00
2023-03-24T19:59:10.566Z,99493.00
2023-03-24T20:04:25.849Z,99472.00
2023-03-24T20:07:04.818Z,99505.00
2023-03-24T20:09:38.252Z,99474.00
2023-03-24T20:12:10.348Z,99434.00
2023-03-24T20:15:01.357Z,99472.00
2023-03-24T20:17:29.989Z,99484.00
2023-03-24T20:19:58.976Z,99460.00
2023-03-24T20:22:30.942Z,99471.00
2023-03-24T20:24:58.880Z,99492.00
2023-03-24T20:30:40.051Z,99460.00
2023-03-24T20:33:21.437Z,99435.00
2023-03-24T20:36:06.983Z,99478.00
2023-03-24T20:39:21.864Z,99414.00
2023-03-24T20:42:23.442Z,99484.00
2023-03-24T20:44:59.223Z,99484.00
2023-03-24T20:47:48.973Z,99485.00
2023-03-24T20:50:40.490Z,99486.00
2023-03-24T20:53:49.750Z,99441.00
2023-03-24T20:56:44.612Z,99477.00
2023-03-24T20:59:41.685Z,99475.00
2023-03-24T21:02:36.831Z,99449.00
2023-03-24T21:08:48.727Z,99416.00
2023-03-24T21:11:50.214Z,99472.00
2023-03-24T21:14:27.848Z,99452.00
2023-03-24T21:18:04.535Z,99467.00
2023-03-24T21:21:12.957Z,99458.00
2023-03-24T21:24:41.775Z,99475.00
2023-03-24T21:27:43.837Z,99467.00
2023-03-24T21:30:55.063Z,99471.00
2023-03-24T21:36:56.023Z,99450.00
2023-03-24T21:39:58.516Z,99451.00
2023-03-24T21:42:37.668Z,99460.00
2023-03-24T21:45:22.288Z,99436.00
2023-03-24T21:48:30.385Z,99415.00
2023-03-24T21:52:01.819Z,99390.00
2023-03-24T21:58:00.066Z,99433.00
2023-03-24T22:01:32.794Z,99434.00
2023-03-24T22:04:07.352Z,99446.00
2023-03-24T22:06:49.792Z,99429.00
2023-03-24T22:09:23.704Z,99414.00
2023-03-24T22:11:54.765Z,99442.00
2023-03-24T22:14:27.812Z,99434.00
2023-03-24T22:16:57.470Z,99418.00
2023-03-24T22:19:35.185Z,99402.00
2023-03-24T22:22:10.206Z,99435.00
2023-03-24T22:24:43.010Z,99408.00
2023-03-24T22:27:20.438Z,99406.00
2023-03-24T22:29:55.043Z,99419.00
2023-03-24T22:32:24.252Z,99427.00
2023-03-24T22:35:19.024Z,99401.00
2023-03-24T22:38:02.080Z,99424.00
2023-03-24T22:40:43.637Z,99423.00
2023-03-24T22:43:12.181Z,99385.00
2023-03-24T22:45:40.486Z,99409.00
2023-03-24T22:48:18.877Z,99389.00
2023-03-24T22:50:55.531Z,99429.00
2023-03-24T22:53:26.233Z,99396.00
2023-03-24T22:55:58.952Z,99389.00
2023-03-24T22:58:37.970Z,99386.00
2023-03-24T23:01:06.557Z,99420.00
2023-03-24T23:03:44.194Z,99405.00
2023-03-24T23:06:17.661Z,99399.00
2023-03-24T23:08:53.632Z,99381.00
2023-03-24T23:11:30.317Z,99402.00
2023-03-24T23:14:05.674Z,99414.00
2023-03-24T23:19:40.025Z,99431.00
2023-03-24T23:22:11.924Z,99422.00
2023-03-24T23:24:40.417Z,99426.00
2023-03-24T23:27:11.067Z,99391.00
2023-03-24T23:29:43.446Z,99384.00
2023-03-24T23:32:12.019Z,99410.00
2023-03-24T23:34:46.198Z,99391.00
2023-03-24T23:37:21.567Z,99406.00
2023-03-24T23:39:54.084Z,99358.00
2023-03-24T23:42:22.572Z,99414.00
2023-03-24T23:44:50.718Z,99395.00
2023-03-24T23:47:18.983Z,99381.00
2023-03-24T23:49:47.304Z,99418.00
2023-03-24T23:52:17.291Z,99415.00
2023-03-24T23:54:48.101Z,99423.00
2023-03-24T23:57:18.929Z,99410.00
2023-03-24T23:59:49.548Z,99417.00
